createdAt,value
2017-04-11T00:00:22.577Z,8.19
2017-04-11T00:05:19.216Z,8.23
2017-04-11T00:10:15.492Z,8.12
2017-04-11T00:15:11.794Z,7.95
2017-04-11T00:20:08.941Z,7.95
2017-04-11T00:25:05.534Z,8.13
2017-04-11T00:30:01.835Z,8.18
2017-04-11T00:34:59.696Z,8.20
2017-04-11T00:44:58.095Z,7.76
2017-04-11T00:49:54.071Z,7.82
2017-04-11T00:54:50.340Z,7.80
2017-04-11T00:59:46.689Z,7.98
2017-04-11T01:04:45.495Z,8.08
2017-04-11T01:09:42.317Z,7.94
2017-04-11T01:14:39.895Z,7.83
2017-04-11T01:19:35.715Z,7.61
2017-04-11T01:24:32.194Z,7.77
2017-04-11T01:29:28.563Z,7.69
2017-04-11T01:34:25.525Z,7.91
2017-04-11T01:39:22.432Z,7.95
2017-04-11T01:44:19.229Z,7.77
2017-04-11T01:49:16.102Z,7.72
2017-04-11T01:54:12.338Z,7.60
2017-04-11T01:59:08.623Z,7.67
2017-04-11T02:04:05.076Z,7.61
2017-04-11T02:09:01.662Z,7.63
2017-04-11T02:13:59.717Z,7.58
2017-04-11T02:18:55.837Z,7.73
2017-04-11T02:23:55.191Z,7.79
2017-04-11T02:28:50.780Z,7.66
2017-04-11T02:33:47.332Z,7.42
2017-04-11T02:38:44.220Z,7.47
2017-04-11T02:43:41.011Z,7.45
2017-04-11T02:48:37.368Z,7.58
2017-04-11T02:53:33.628Z,7.76
2017-04-11T02:58:30.055Z,7.79
2017-04-11T03:03:26.496Z,7.58
2017-04-11T03:08:22.891Z,7.67
2017-04-11T03:13:19.432Z,7.50
2017-04-11T03:18:15.889Z,7.53
2017-04-11T03:23:12.668Z,7.58
2017-04-11T03:28:09.212Z,7.72
2017-04-11T03:33:05.579Z,7.72
2017-04-11T03:38:02.106Z,7.67
2017-04-11T03:42:58.500Z,7.51
2017-04-11T03:47:55.082Z,7.54
2017-04-11T03:52:51.520Z,7.47
2017-04-11T03:57:48.661Z,7.20
2017-04-11T04:02:44.890Z,7.29
2017-04-11T04:07:41.552Z,7.69
2017-04-11T04:12:37.931Z,7.50
2017-04-11T04:17:34.486Z,7.42
2017-04-11T04:22:30.923Z,7.35
2017-04-11T04:27:28.163Z,7.56
2017-04-11T04:32:24.275Z,7.56
2017-04-11T04:37:20.901Z,7.57
2017-04-11T04:42:17.314Z,7.58
2017-04-11T04:47:13.783Z,7.54
2017-04-11T04:52:10.354Z,7.67
2017-04-11T04:57:07.264Z,7.73
2017-04-11T05:02:04.033Z,7.67
2017-04-11T05:07:00.276Z,7.83
2017-04-11T05:11:56.769Z,7.75
2017-04-11T05:16:53.231Z,7.82
2017-04-11T05:21:49.515Z,7.82
2017-04-11T05:26:45.909Z,7.72
2017-04-11T05:31:42.268Z,7.97
2017-04-11T05:36:39.608Z,7.80
2017-04-11T05:41:36.111Z,7.72
2017-04-11T05:46:32.497Z,7.80
2017-04-11T05:51:29.050Z,7.93
2017-04-11T05:56:25.386Z,7.90
2017-04-11T06:01:22.274Z,7.80
2017-04-11T06:11:23.487Z,7.87
2017-04-11T06:16:19.982Z,8.16
2017-04-11T06:21:16.425Z,8.23
2017-04-11T06:26:12.938Z,8.30
2017-04-11T06:31:09.223Z,8.33
2017-04-11T06:36:05.505Z,8.33
2017-04-11T06:41:02.166Z,8.19
2017-04-11T06:45:58.462Z,8.28
2017-04-11T06:50:55.345Z,8.37
2017-04-11T06:55:51.713Z,8.18
2017-04-11T07:00:47.953Z,8.46
2017-04-11T07:05:44.299Z,8.30
2017-04-11T07:10:40.732Z,8.44
2017-04-11T07:15:38.167Z,8.30
2017-04-11T07:20:34.732Z,8.19
2017-04-11T07:25:32.763Z,8.37
2017-04-11T07:30:28.861Z,8.44
2017-04-11T07:35:25.298Z,8.41
2017-04-11T07:40:21.888Z,8.58
2017-04-11T07:45:18.845Z,8.73
2017-04-11T07:50:15.499Z,8.91
2017-04-11T07:55:12.819Z,8.92
2017-04-11T08:00:09.275Z,8.81
2017-04-11T08:05:05.700Z,9.08
2017-04-11T08:10:02.367Z,9.47
2017-04-11T08:14:59.022Z,9.46
2017-04-11T08:19:55.647Z,9.39
2017-04-11T08:24:52.110Z,9.58
2017-04-11T08:29:48.679Z,9.56
2017-04-11T08:34:45.426Z,9.73
2017-04-11T08:39:41.966Z,9.82
2017-04-11T08:44:38.870Z,10.07
2017-04-11T08:49:35.420Z,10.05
2017-04-11T08:54:32.353Z,10.26
2017-04-11T08:59:29.164Z,10.40
2017-04-11T09:04:26.888Z,10.35
2017-04-11T09:09:23.263Z,10.30
2017-04-11T09:14:19.807Z,10.59
2017-04-11T09:19:16.607Z,10.57
2017-04-11T09:24:13.598Z,10.84
2017-04-11T09:29:10.641Z,10.97
2017-04-11T09:34:07.389Z,11.26
2017-04-11T09:39:03.920Z,11.40
2017-04-11T09:44:00.298Z,11.55
2017-04-11T09:48:57.141Z,11.32
2017-04-11T09:53:53.588Z,11.51
2017-04-11T09:58:50.610Z,12.17
2017-04-11T10:03:47.611Z,12.25
2017-04-11T10:08:45.238Z,13.05
2017-04-11T10:13:42.801Z,12.72
2017-04-11T10:18:39.598Z,12.83
2017-04-11T10:23:36.621Z,13.05
2017-04-11T10:28:32.973Z,12.85
2017-04-11T10:33:29.102Z,12.53
2017-04-11T10:38:26.100Z,12.57
2017-04-11T10:43:22.375Z,12.40
2017-04-11T10:48:18.562Z,12.22
2017-04-11T10:53:14.828Z,12.07
2017-04-11T10:58:11.815Z,12.12
2017-04-11T11:03:08.583Z,12.15
2017-04-11T11:08:04.995Z,12.17
2017-04-11T11:13:01.402Z,12.27
2017-04-11T11:17:58.053Z,12.35
2017-04-11T11:22:56.557Z,12.67
2017-04-11T11:27:53.098Z,12.73
2017-04-11T11:32:50.823Z,13.05
2017-04-11T11:37:49.877Z,12.97
2017-04-11T11:42:46.690Z,13.54
2017-04-11T11:47:44.487Z,14.33
2017-04-11T11:52:41.418Z,14.29
2017-04-11T11:57:36.498Z,13.81
2017-04-11T12:02:34.881Z,13.96
2017-04-11T12:07:30.436Z,13.85
2017-04-11T12:12:25.514Z,13.56
2017-04-11T12:17:23.636Z,13.93
2017-04-11T12:22:18.657Z,13.86
2017-04-11T12:27:14.729Z,13.74
2017-04-11T12:32:10.412Z,13.23
2017-04-11T12:37:06.499Z,12.95
2017-04-11T12:42:03.135Z,12.85
2017-04-11T12:46:59.454Z,12.87
2017-04-11T12:51:56.151Z,12.78
2017-04-11T12:56:52.526Z,12.70
2017-04-11T13:01:49.107Z,12.65
2017-04-11T13:06:45.609Z,12.57
2017-04-11T13:11:42.369Z,12.61
2017-04-11T13:16:38.863Z,12.50
2017-04-11T13:21:35.750Z,12.45
2017-04-11T13:26:32.366Z,12.43
2017-04-11T13:31:28.808Z,12.43
2017-04-11T13:36:25.537Z,12.42
2017-04-11T13:41:22.108Z,12.50
2017-04-11T13:46:18.249Z,12.57
2017-04-11T13:51:15.059Z,12.60
2017-04-11T13:56:11.620Z,12.70
2017-04-11T14:01:08.241Z,12.72
2017-04-11T14:06:04.857Z,12.73
2017-04-11T14:11:01.175Z,12.76
2017-04-11T14:15:57.481Z,12.72
2017-04-11T14:20:54.016Z,12.65
2017-04-11T14:25:50.148Z,12.72
2017-04-11T14:30:47.942Z,12.61
2017-04-11T14:35:44.385Z,12.70
2017-04-11T14:40:40.936Z,12.75
2017-04-11T14:45:37.447Z,12.70
2017-04-11T14:50:33.789Z,12.70
2017-04-11T14:55:30.199Z,12.79
2017-04-11T15:00:27.936Z,12.86
2017-04-11T15:05:24.558Z,12.93
2017-04-11T15:10:21.699Z,13.00
2017-04-11T15:15:18.241Z,13.05
2017-04-11T15:20:15.240Z,13.04
2017-04-11T15:25:11.958Z,13.03
2017-04-11T15:30:08.539Z,13.03
2017-04-11T15:35:05.805Z,13.01
2017-04-11T15:40:02.252Z,13.01
2017-04-11T15:44:58.611Z,13.05
2017-04-11T15:49:55.165Z,13.05
2017-04-11T15:54:51.857Z,13.23
2017-04-11T15:59:48.063Z,13.31
2017-04-11T16:04:44.608Z,13.12
2017-04-11T16:09:42.174Z,13.16
2017-04-11T16:14:38.603Z,13.28
2017-04-11T16:19:36.583Z,13.30
2017-04-11T16:24:32.626Z,13.22
2017-04-11T16:29:29.209Z,13.31
2017-04-11T16:34:25.485Z,13.19
2017-04-11T16:39:21.810Z,13.27
2017-04-11T16:44:18.672Z,13.23
2017-04-11T16:49:15.876Z,13.18
2017-04-11T16:54:12.258Z,13.28
2017-04-11T16:59:08.856Z,13.25
2017-04-11T17:04:05.421Z,13.18
2017-04-11T17:09:02.928Z,13.11
2017-04-11T17:13:59.856Z,13.20
2017-04-11T17:18:56.777Z,13.19
2017-04-11T17:23:53.317Z,13.16
2017-04-11T17:28:49.913Z,13.25
2017-04-11T17:33:45.932Z,13.20
2017-04-11T17:38:42.675Z,13.15
2017-04-11T17:43:39.193Z,13.19
2017-04-11T17:48:36.225Z,13.12
2017-04-11T17:53:34.001Z,13.04
2017-04-11T17:58:30.350Z,13.15
2017-04-11T18:03:27.515Z,13.09
2017-04-11T18:08:24.373Z,13.11
2017-04-11T18:13:21.354Z,13.01
2017-04-11T18:18:17.711Z,13.01
2017-04-11T18:23:15.154Z,12.97
2017-04-11T18:28:11.947Z,12.90
2017-04-11T18:33:08.790Z,12.86
2017-04-11T18:38:05.299Z,12.80
2017-04-11T18:43:01.842Z,12.82
2017-04-11T18:47:58.422Z,12.76
2017-04-11T18:52:54.992Z,12.73
2017-04-11T18:57:51.775Z,12.73
2017-04-11T19:02:49.561Z,12.68
2017-04-11T19:07:45.746Z,12.60
2017-04-11T19:12:42.546Z,12.62
2017-04-11T19:17:39.264Z,12.57
2017-04-11T19:22:35.817Z,12.55
2017-04-11T19:27:32.235Z,12.53
2017-04-11T19:32:28.634Z,12.55
2017-04-11T19:37:25.828Z,12.57
2017-04-11T19:42:22.888Z,12.43
2017-04-11T19:47:19.697Z,12.43
2017-04-11T19:52:17.147Z,12.40
2017-04-11T19:57:13.433Z,12.36
2017-04-11T20:02:09.926Z,12.36
2017-04-11T20:07:06.569Z,12.18
2017-04-11T20:12:03.134Z,12.18
2017-04-11T20:16:59.518Z,12.18
2017-04-11T20:21:56.118Z,12.18
2017-04-11T20:26:52.563Z,12.18
2017-04-11T20:31:49.290Z,12.12
2017-04-11T20:36:46.231Z,12.10
2017-04-11T20:41:42.625Z,12.17
2017-04-11T20:46:39.031Z,12.06
2017-04-11T20:51:35.645Z,12.04
2017-04-11T20:56:32.222Z,11.99
2017-04-11T21:01:28.501Z,12.00
2017-04-11T21:06:25.353Z,11.86
2017-04-11T21:11:21.998Z,11.88
2017-04-11T21:16:18.711Z,11.83
2017-04-11T21:21:15.495Z,11.72
2017-04-11T21:26:12.098Z,11.73
2017-04-11T21:31:08.729Z,11.75
2017-04-11T21:36:07.027Z,11.69
2017-04-11T21:41:02.920Z,11.60
2017-04-11T21:45:59.810Z,11.63
2017-04-11T21:50:57.403Z,11.60
2017-04-11T21:55:53.527Z,11.52
2017-04-11T22:00:50.054Z,11.47
2017-04-11T22:05:46.381Z,11.51
2017-04-11T22:10:42.839Z,11.50
2017-04-11T22:15:39.542Z,11.43
2017-04-11T22:20:35.982Z,11.30
2017-04-11T22:25:34.950Z,11.35
2017-04-11T22:30:31.460Z,11.30
2017-04-11T22:35:28.493Z,11.32
2017-04-11T22:40:24.954Z,11.35
2017-04-11T22:45:21.988Z,11.18
2017-04-11T22:50:18.650Z,11.27
2017-04-11T22:55:15.107Z,11.32
2017-04-11T23:00:11.302Z,11.11
2017-04-11T23:05:08.379Z,10.97
2017-04-11T23:10:04.947Z,10.92
2017-04-11T23:15:01.829Z,10.92
2017-04-11T23:19:59.311Z,11.08
2017-04-11T23:24:56.006Z,10.97
2017-04-11T23:29:52.560Z,11.05
2017-04-11T23:34:48.699Z,10.96
2017-04-11T23:39:45.408Z,10.75
2017-04-11T23:44:41.879Z,10.61
2017-04-11T23:49:38.551Z,10.60
2017-04-11T23:54:34.994Z,10.56
2017-04-11T23:59:31.606Z,10.61
